sensor_id;sensor_type;location;lat;lon;timestamp;P1;durP1;ratioP1;P2;durP2;ratioP2
30173;SDS011;16985;50.814;8.530;2022-09-29T00:00:42;3.88;;;2.83;;
30173;SDS011;16985;50.814;8.530;2022-09-29T00:03:08;4.07;;;2.58;;
30173;SDS011;16985;50.814;8.530;2022-09-29T00:05:34;8.73;;;2.90;;
30173;SDS011;16985;50.814;8.530;2022-09-29T00:08:00;2.80;;;2.55;;
30173;SDS011;16985;50.814;8.530;2022-09-29T00:10:26;5.45;;;3.55;;
30173;SDS011;16985;50.814;8.530;2022-09-29T00:12:52;3.05;;;2.65;;
30173;SDS011;16985;50.814;8.530;2022-09-29T00:15:17;5.00;;;2.85;;
30173;SDS011;16985;50.814;8.530;2022-09-29T00:17:43;5.32;;;3.20;;
30173;SDS011;16985;50.814;8.530;2022-09-29T00:20:09;4.28;;;3.13;;
30173;SDS011;16985;50.814;8.530;2022-09-29T00:22:35;4.50;;;2.95;;
30173;SDS011;16985;50.814;8.530;2022-09-29T00:25:01;3.83;;;2.72;;
30173;SDS011;16985;50.814;8.530;2022-09-29T00:27:26;5.10;;;2.92;;
30173;SDS011;16985;50.814;8.530;2022-09-29T00:29:52;2.75;;;2.42;;
30173;SDS011;16985;50.814;8.530;2022-09-29T00:32:18;7.88;;;2.83;;
30173;SDS011;16985;50.814;8.530;2022-09-29T00:34:44;2.95;;;2.50;;
30173;SDS011;16985;50.814;8.530;2022-09-29T00:37:09;3.03;;;2.72;;
30173;SDS011;16985;50.814;8.530;2022-09-29T00:39:35;4.10;;;2.90;;
30173;SDS011;16985;50.814;8.530;2022-09-29T00:42:01;4.53;;;2.78;;
30173;SDS011;16985;50.814;8.530;2022-09-29T00:47:25;6.18;;;2.95;;
30173;SDS011;16985;50.814;8.530;2022-09-29T00:49:57;2.70;;;2.25;;
30173;SDS011;16985;50.814;8.530;2022-09-29T00:52:36;2.83;;;2.30;;
30173;SDS011;16985;50.814;8.530;2022-09-29T01:00:40;4.25;;;2.80;;
30173;SDS011;16985;50.814;8.530;2022-09-29T01:03:08;5.72;;;2.70;;
30173;SDS011;16985;50.814;8.530;2022-09-29T01:05:39;4.65;;;2.53;;
30173;SDS011;16985;50.814;8.530;2022-09-29T01:08:33;2.97;;;2.67;;
30173;SDS011;16985;50.814;8.530;2022-09-29T01:11:23;5.30;;;2.50;;
30173;SDS011;16985;50.814;8.530;2022-09-29T01:13:50;4.90;;;3.40;;
30173;SDS011;16985;50.814;8.530;2022-09-29T01:16:19;3.15;;;2.42;;
30173;SDS011;16985;50.814;8.530;2022-09-29T01:18:45;3.40;;;2.35;;
30173;SDS011;16985;50.814;8.530;2022-09-29T01:21:22;2.47;;;2.28;;
30173;SDS011;16985;50.814;8.530;2022-09-29T01:35:19;3.60;;;3.00;;
30173;SDS011;16985;50.814;8.530;2022-09-29T01:41:17;4.35;;;2.47;;
30173;SDS011;16985;50.814;8.530;2022-09-29T01:46:49;4.72;;;3.20;;
30173;SDS011;16985;50.814;8.530;2022-09-29T01:49:37;4.10;;;3.22;;
30173;SDS011;16985;50.814;8.530;2022-09-29T01:52:09;5.57;;;3.53;;
30173;SDS011;16985;50.814;8.530;2022-09-29T01:54:53;4.30;;;3.58;;
30173;SDS011;16985;50.814;8.530;2022-09-29T01:57:38;4.57;;;3.60;;
30173;SDS011;16985;50.814;8.530;2022-09-29T02:00:31;3.83;;;3.42;;
30173;SDS011;16985;50.814;8.530;2022-09-29T02:03:27;5.18;;;4.25;;
30173;SDS011;16985;50.814;8.530;2022-09-29T02:06:02;6.95;;;3.60;;
30173;SDS011;16985;50.814;8.530;2022-09-29T02:08:39;5.85;;;3.90;;
30173;SDS011;16985;50.814;8.530;2022-09-29T02:11:18;5.70;;;4.50;;
30173;SDS011;16985;50.814;8.530;2022-09-29T02:14:04;7.25;;;5.40;;
30173;SDS011;16985;50.814;8.530;2022-09-29T02:16:35;6.60;;;5.35;;
30173;SDS011;16985;50.814;8.530;2022-09-29T02:19:08;7.18;;;6.25;;
30173;SDS011;16985;50.814;8.530;2022-09-29T02:21:41;7.30;;;5.55;;
30173;SDS011;16985;50.814;8.530;2022-09-29T02:24:08;7.00;;;5.10;;
30173;SDS011;16985;50.814;8.530;2022-09-29T02:26:35;6.68;;;5.18;;
30173;SDS011;16985;50.814;8.530;2022-09-29T02:29:04;7.00;;;5.50;;
30173;SDS011;16985;50.814;8.530;2022-09-29T02:31:32;8.10;;;5.45;;
30173;SDS011;16985;50.814;8.530;2022-09-29T02:36:32;7.93;;;5.72;;
30173;SDS011;16985;50.814;8.530;2022-09-29T02:51:41;6.68;;;5.35;;
30173;SDS011;16985;50.814;8.530;2022-09-29T03:00:00;6.88;;;5.75;;
30173;SDS011;16985;50.814;8.530;2022-09-29T03:02:34;6.90;;;5.15;;
30173;SDS011;16985;50.814;8.530;2022-09-29T03:05:04;6.97;;;5.80;;
30173;SDS011;16985;50.814;8.530;2022-09-29T03:07:33;7.80;;;6.10;;
30173;SDS011;16985;50.814;8.530;2022-09-29T03:10:02;6.85;;;5.80;;
30173;SDS011;16985;50.814;8.530;2022-09-29T03:12:29;6.78;;;5.70;;
30173;SDS011;16985;50.814;8.530;2022-09-29T03:14:55;7.30;;;5.75;;
30173;SDS011;16985;50.814;8.530;2022-09-29T03:17:20;6.97;;;5.57;;
30173;SDS011;16985;50.814;8.530;2022-09-29T03:19:46;7.45;;;5.60;;
30173;SDS011;16985;50.814;8.530;2022-09-29T03:22:12;7.57;;;5.90;;
30173;SDS011;16985;50.814;8.530;2022-09-29T03:24:38;6.45;;;5.47;;
30173;SDS011;16985;50.814;8.530;2022-09-29T03:27:04;8.18;;;5.80;;
30173;SDS011;16985;50.814;8.530;2022-09-29T03:29:30;6.20;;;5.32;;
30173;SDS011;16985;50.814;8.530;2022-09-29T03:31:57;7.50;;;5.85;;
30173;SDS011;16985;50.814;8.530;2022-09-29T03:34:24;7.75;;;5.50;;
30173;SDS011;16985;50.814;8.530;2022-09-29T03:36:49;6.38;;;5.05;;
30173;SDS011;16985;50.814;8.530;2022-09-29T03:39:15;7.97;;;5.45;;
30173;SDS011;16985;50.814;8.530;2022-09-29T03:41:41;6.90;;;5.97;;
30173;SDS011;16985;50.814;8.530;2022-09-29T03:44:07;7.53;;;5.45;;
30173;SDS011;16985;50.814;8.530;2022-09-29T03:46:33;8.73;;;5.80;;
30173;SDS011;16985;50.814;8.530;2022-09-29T03:48:59;6.55;;;5.18;;
30173;SDS011;16985;50.814;8.530;2022-09-29T03:51:24;7.00;;;5.13;;
30173;SDS011;16985;50.814;8.530;2022-09-29T03:53:50;7.10;;;5.75;;
30173;SDS011;16985;50.814;8.530;2022-09-29T03:56:16;6.90;;;5.43;;
30173;SDS011;16985;50.814;8.530;2022-09-29T03:58:42;6.63;;;5.22;;
30173;SDS011;16985;50.814;8.530;2022-09-29T04:01:07;7.55;;;5.95;;
30173;SDS011;16985;50.814;8.530;2022-09-29T04:03:33;8.32;;;5.60;;
30173;SDS011;16985;50.814;8.530;2022-09-29T04:05:59;7.32;;;6.22;;
30173;SDS011;16985;50.814;8.530;2022-09-29T04:08:25;8.75;;;6.88;;
30173;SDS011;16985;50.814;8.530;2022-09-29T04:10:51;7.60;;;5.63;;
30173;SDS011;16985;50.814;8.530;2022-09-29T04:13:17;8.15;;;6.90;;
30173;SDS011;16985;50.814;8.530;2022-09-29T04:15:42;7.60;;;5.82;;
30173;SDS011;16985;50.814;8.530;2022-09-29T04:18:08;9.77;;;5.70;;
30173;SDS011;16985;50.814;8.530;2022-09-29T04:20:34;7.85;;;5.88;;
30173;SDS011;16985;50.814;8.530;2022-09-29T04:23:02;10.27;;;5.72;;
30173;SDS011;16985;50.814;8.530;2022-09-29T04:25:28;7.47;;;5.78;;
30173;SDS011;16985;50.814;8.530;2022-09-29T04:27:54;6.93;;;5.60;;
30173;SDS011;16985;50.814;8.530;2022-09-29T04:30:20;7.40;;;6.28;;
30173;SDS011;16985;50.814;8.530;2022-09-29T04:32:46;6.28;;;5.35;;
30173;SDS011;16985;50.814;8.530;2022-09-29T04:35:11;6.60;;;5.07;;
30173;SDS011;16985;50.814;8.530;2022-09-29T04:37:37;11.30;;;6.35;;
30173;SDS011;16985;50.814;8.530;2022-09-29T04:40:03;7.53;;;5.63;;
30173;SDS011;16985;50.814;8.530;2022-09-29T04:42:30;8.25;;;6.20;;
30173;SDS011;16985;50.814;8.530;2022-09-29T04:44:56;6.72;;;5.43;;
30173;SDS011;16985;50.814;8.530;2022-09-29T04:47:21;7.40;;;6.15;;
30173;SDS011;16985;50.814;8.530;2022-09-29T04:49:47;6.80;;;5.85;;
30173;SDS011;16985;50.814;8.530;2022-09-29T04:52:13;6.40;;;5.20;;
30173;SDS011;16985;50.814;8.530;2022-09-29T04:54:39;7.05;;;6.00;;
30173;SDS011;16985;50.814;8.530;2022-09-29T04:57:05;5.85;;;4.88;;
30173;SDS011;16985;50.814;8.530;2022-09-29T04:59:31;7.93;;;5.78;;
30173;SDS011;16985;50.814;8.530;2022-09-29T05:01:57;6.13;;;5.20;;
30173;SDS011;16985;50.814;8.530;2022-09-29T05:04:23;7.30;;;5.55;;
30173;SDS011;16985;50.814;8.530;2022-09-29T05:06:49;6.85;;;5.72;;
30173;SDS011;16985;50.814;8.530;2022-09-29T05:09:15;6.95;;;5.50;;
30173;SDS011;16985;50.814;8.530;2022-09-29T05:11:41;6.13;;;5.38;;
30173;SDS011;16985;50.814;8.530;2022-09-29T05:14:07;7.25;;;5.50;;
30173;SDS011;16985;50.814;8.530;2022-09-29T05:16:35;5.95;;;5.22;;
30173;SDS011;16985;50.814;8.530;2022-09-29T05:19:01;7.00;;;5.40;;
30173;SDS011;16985;50.814;8.530;2022-09-29T05:21:27;7.10;;;5.47;;
30173;SDS011;16985;50.814;8.530;2022-09-29T05:23:53;7.22;;;5.55;;
30173;SDS011;16985;50.814;8.530;2022-09-29T05:26:19;8.00;;;5.72;;
30173;SDS011;16985;50.814;8.530;2022-09-29T05:28:46;6.40;;;5.70;;
30173;SDS011;16985;50.814;8.530;2022-09-29T05:31:12;8.15;;;6.20;;
30173;SDS011;16985;50.814;8.530;2022-09-29T05:33:39;8.15;;;6.03;;
30173;SDS011;16985;50.814;8.530;2022-09-29T05:36:06;6.78;;;5.43;;
30173;SDS011;16985;50.814;8.530;2022-09-29T05:38:35;8.20;;;5.80;;
30173;SDS011;16985;50.814;8.530;2022-09-29T05:41:09;7.30;;;5.78;;
30173;SDS011;16985;50.814;8.530;2022-09-29T05:43:36;6.53;;;5.47;;
30173;SDS011;16985;50.814;8.530;2022-09-29T05:46:04;6.65;;;5.43;;
30173;SDS011;16985;50.814;8.530;2022-09-29T05:48:32;8.10;;;5.68;;
30173;SDS011;16985;50.814;8.530;2022-09-29T05:50:59;8.32;;;5.28;;
30173;SDS011;16985;50.814;8.530;2022-09-29T05:53:32;5.38;;;4.65;;
30173;SDS011;16985;50.814;8.530;2022-09-29T05:55:57;5.32;;;4.68;;
30173;SDS011;16985;50.814;8.530;2022-09-29T05:58:23;6.88;;;4.35;;
30173;SDS011;16985;50.814;8.530;2022-09-29T06:00:49;5.30;;;4.25;;
30173;SDS011;16985;50.814;8.530;2022-09-29T06:03:15;5.63;;;4.68;;
30173;SDS011;16985;50.814;8.530;2022-09-29T06:08:09;7.70;;;5.72;;
30173;SDS011;16985;50.814;8.530;2022-09-29T06:10:36;6.43;;;5.28;;
30173;SDS011;16985;50.814;8.530;2022-09-29T06:13:02;6.68;;;5.15;;
30173;SDS011;16985;50.814;8.530;2022-09-29T06:15:28;6.18;;;5.00;;
30173;SDS011;16985;50.814;8.530;2022-09-29T06:17:54;5.85;;;4.95;;
30173;SDS011;16985;50.814;8.530;2022-09-29T06:20:21;6.72;;;5.20;;
30173;SDS011;16985;50.814;8.530;2022-09-29T06:22:47;6.80;;;4.57;;
30173;SDS011;16985;50.814;8.530;2022-09-29T06:25:16;6.93;;;5.30;;
30173;SDS011;16985;50.814;8.530;2022-09-29T06:27:42;5.78;;;4.78;;
30173;SDS011;16985;50.814;8.530;2022-09-29T06:30:08;6.65;;;5.25;;
30173;SDS011;16985;50.814;8.530;2022-09-29T06:32:37;6.40;;;5.03;;
30173;SDS011;16985;50.814;8.530;2022-09-29T06:35:03;7.70;;;5.68;;
30173;SDS011;16985;50.814;8.530;2022-09-29T06:37:49;6.97;;;4.97;;
30173;SDS011;16985;50.814;8.530;2022-09-29T06:40:17;8.30;;;5.03;;
30173;SDS011;16985;50.814;8.530;2022-09-29T06:42:47;6.65;;;4.97;;
30173;SDS011;16985;50.814;8.530;2022-09-29T06:45:14;7.03;;;5.78;;
30173;SDS011;16985;50.814;8.530;2022-09-29T06:47:40;7.97;;;6.03;;
30173;SDS011;16985;50.814;8.530;2022-09-29T06:50:06;11.18;;;6.07;;
30173;SDS011;16985;50.814;8.530;2022-09-29T06:52:33;7.53;;;5.63;;
30173;SDS011;16985;50.814;8.530;2022-09-29T06:54:59;8.00;;;5.85;;
30173;SDS011;16985;50.814;8.530;2022-09-29T06:57:25;8.10;;;5.63;;
30173;SDS011;16985;50.814;8.530;2022-09-29T06:59:51;7.35;;;5.82;;
30173;SDS011;16985;50.814;8.530;2022-09-29T07:02:17;6.82;;;5.45;;
30173;SDS011;16985;50.814;8.530;2022-09-29T07:04:42;5.95;;;4.80;;
30173;SDS011;16985;50.814;8.530;2022-09-29T07:07:08;6.40;;;4.72;;
30173;SDS011;16985;50.814;8.530;2022-09-29T07:09:34;6.47;;;5.00;;
30173;SDS011;16985;50.814;8.530;2022-09-29T07:12:00;6.25;;;4.60;;
30173;SDS011;16985;50.814;8.530;2022-09-29T07:14:26;6.32;;;5.22;;
30173;SDS011;16985;50.814;8.530;2022-09-29T07:16:52;7.03;;;5.53;;
30173;SDS011;16985;50.814;8.530;2022-09-29T07:19:18;6.25;;;5.05;;
30173;SDS011;16985;50.814;8.530;2022-09-29T07:21:45;5.68;;;4.22;;
30173;SDS011;16985;50.814;8.530;2022-09-29T07:24:11;6.20;;;5.03;;
30173;SDS011;16985;50.814;8.530;2022-09-29T07:26:37;6.82;;;4.97;;
30173;SDS011;16985;50.814;8.530;2022-09-29T07:29:03;5.53;;;4.35;;
30173;SDS011;16985;50.814;8.530;2022-09-29T07:31:29;9.23;;;5.50;;
30173;SDS011;16985;50.814;8.530;2022-09-29T07:33:55;6.75;;;5.32;;
30173;SDS011;16985;50.814;8.530;2022-09-29T07:36:21;5.93;;;4.70;;
30173;SDS011;16985;50.814;8.530;2022-09-29T07:38:47;6.05;;;4.90;;
30173;SDS011;16985;50.814;8.530;2022-09-29T07:41:15;5.25;;;4.47;;
30173;SDS011;16985;50.814;8.530;2022-09-29T07:43:44;7.00;;;4.85;;
30173;SDS011;16985;50.814;8.530;2022-09-29T07:46:10;8.77;;;5.47;;
30173;SDS011;16985;50.814;8.530;2022-09-29T07:48:36;15.00;;;5.05;;
30173;SDS011;16985;50.814;8.530;2022-09-29T07:51:06;7.43;;;5.60;;
30173;SDS011;16985;50.814;8.530;2022-09-29T07:53:35;8.35;;;4.80;;
30173;SDS011;16985;50.814;8.530;2022-09-29T07:56:03;5.65;;;4.53;;
30173;SDS011;16985;50.814;8.530;2022-09-29T07:58:53;5.10;;;4.25;;
30173;SDS011;16985;50.814;8.530;2022-09-29T08:01:20;6.72;;;4.55;;
30173;SDS011;16985;50.814;8.530;2022-09-29T08:03:50;5.93;;;4.40;;
30173;SDS011;16985;50.814;8.530;2022-09-29T08:06:18;6.57;;;4.70;;
30173;SDS011;16985;50.814;8.530;2022-09-29T08:08:46;6.40;;;5.20;;
30173;SDS011;16985;50.814;8.530;2022-09-29T08:11:13;6.35;;;5.28;;
30173;SDS011;16985;50.814;8.530;2022-09-29T08:13:41;7.13;;;4.90;;
30173;SDS011;16985;50.814;8.530;2022-09-29T08:16:09;7.10;;;4.65;;
30173;SDS011;16985;50.814;8.530;2022-09-29T08:18:38;6.05;;;4.43;;
30173;SDS011;16985;50.814;8.530;2022-09-29T08:21:06;9.73;;;5.93;;
30173;SDS011;16985;50.814;8.530;2022-09-29T08:23:36;9.32;;;5.57;;
30173;SDS011;16985;50.814;8.530;2022-09-29T08:26:05;7.95;;;5.30;;
30173;SDS011;16985;50.814;8.530;2022-09-29T08:28:33;5.50;;;4.88;;
30173;SDS011;16985;50.814;8.530;2022-09-29T08:31:11;7.57;;;5.85;;
30173;SDS011;16985;50.814;8.530;2022-09-29T08:33:47;6.63;;;5.25;;
30173;SDS011;16985;50.814;8.530;2022-09-29T08:38:45;7.72;;;6.90;;
30173;SDS011;16985;50.814;8.530;2022-09-29T08:44:02;10.63;;;5.88;;
30173;SDS011;16985;50.814;8.530;2022-09-29T08:46:41;9.88;;;6.60;;
30173;SDS011;16985;50.814;8.530;2022-09-29T08:49:21;6.85;;;5.35;;
30173;SDS011;16985;50.814;8.530;2022-09-29T08:51:54;8.18;;;5.95;;
30173;SDS011;16985;50.814;8.530;2022-09-29T08:57:00;6.88;;;5.85;;
30173;SDS011;16985;50.814;8.530;2022-09-29T08:59:27;10.50;;;6.88;;
30173;SDS011;16985;50.814;8.530;2022-09-29T09:14:02;11.68;;;7.03;;
30173;SDS011;16985;50.814;8.530;2022-09-29T09:23:10;7.97;;;6.80;;
30173;SDS011;16985;50.814;8.530;2022-09-29T09:28:02;9.52;;;6.75;;
30173;SDS011;16985;50.814;8.530;2022-09-29T09:31:08;10.70;;;7.70;;
30173;SDS011;16985;50.814;8.530;2022-09-29T09:36:49;12.75;;;8.93;;
30173;SDS011;16985;50.814;8.530;2022-09-29T09:39:31;14.23;;;9.85;;
30173;SDS011;16985;50.814;8.530;2022-09-29T09:42:02;14.05;;;9.27;;
30173;SDS011;16985;50.814;8.530;2022-09-29T09:44:40;14.18;;;9.88;;
30173;SDS011;16985;50.814;8.530;2022-09-29T09:49:55;15.82;;;10.82;;
30173;SDS011;16985;50.814;8.530;2022-09-29T09:55:16;14.80;;;8.57;;
30173;SDS011;16985;50.814;8.530;2022-09-29T10:00:46;12.95;;;8.73;;
30173;SDS011;16985;50.814;8.530;2022-09-29T10:03:20;10.82;;;7.88;;
30173;SDS011;16985;50.814;8.530;2022-09-29T10:05:46;13.43;;;8.48;;
30173;SDS011;16985;50.814;8.530;2022-09-29T10:10:53;11.00;;;6.97;;
30173;SDS011;16985;50.814;8.530;2022-09-29T10:13:21;10.30;;;7.38;;
30173;SDS011;16985;50.814;8.530;2022-09-29T10:18:36;14.02;;;7.97;;
30173;SDS011;16985;50.814;8.530;2022-09-29T10:23:53;9.98;;;6.50;;
30173;SDS011;16985;50.814;8.530;2022-09-29T10:26:42;7.90;;;5.65;;
30173;SDS011;16985;50.814;8.530;2022-09-29T10:34:48;8.50;;;5.90;;
30173;SDS011;16985;50.814;8.530;2022-09-29T10:39:48;6.37;;;4.93;;
30173;SDS011;16985;50.814;8.530;2022-09-29T10:44:54;8.25;;;4.97;;
30173;SDS011;16985;50.814;8.530;2022-09-29T10:52:40;7.72;;;4.70;;
30173;SDS011;16985;50.814;8.530;2022-09-29T10:55:21;6.43;;;5.00;;
30173;SDS011;16985;50.814;8.530;2022-09-29T10:57:59;7.35;;;4.72;;
30173;SDS011;16985;50.814;8.530;2022-09-29T11:00:40;6.18;;;4.50;;
30173;SDS011;16985;50.814;8.530;2022-09-29T11:03:15;7.18;;;4.35;;
30173;SDS011;16985;50.814;8.530;2022-09-29T11:08:54;11.85;;;4.88;;
30173;SDS011;16985;50.814;8.530;2022-09-29T11:11:30;6.55;;;4.03;;
30173;SDS011;16985;50.814;8.530;2022-09-29T11:13:59;5.45;;;4.22;;
30173;SDS011;16985;50.814;8.530;2022-09-29T11:16:29;7.97;;;3.97;;
30173;SDS011;16985;50.814;8.530;2022-09-29T11:19:08;3.47;;;3.17;;
30173;SDS011;16985;50.814;8.530;2022-09-29T11:24:45;4.63;;;3.13;;
30173;SDS011;16985;50.814;8.530;2022-09-29T11:42:23;3.38;;;2.78;;
30173;SDS011;16985;50.814;8.530;2022-09-29T11:44:59;8.40;;;3.22;;
30173;SDS011;16985;50.814;8.530;2022-09-29T11:47:45;5.32;;;2.72;;
30173;SDS011;16985;50.814;8.530;2022-09-29T11:54:18;4.50;;;2.25;;
30173;SDS011;16985;50.814;8.530;2022-09-29T11:57:03;3.45;;;2.38;;
30173;SDS011;16985;50.814;8.530;2022-09-29T12:05:33;3.15;;;2.25;;
30173;SDS011;16985;50.814;8.530;2022-09-29T12:11:59;6.22;;;2.75;;
30173;SDS011;16985;50.814;8.530;2022-09-29T12:14:49;3.20;;;2.40;;
30173;SDS011;16985;50.814;8.530;2022-09-29T12:17:33;4.32;;;2.65;;
30173;SDS011;16985;50.814;8.530;2022-09-29T12:20:06;3.97;;;2.33;;
30173;SDS011;16985;50.814;8.530;2022-09-29T12:22:44;3.55;;;2.20;;
30173;SDS011;16985;50.814;8.530;2022-09-29T12:27:41;6.28;;;2.65;;
30173;SDS011;16985;50.814;8.530;2022-09-29T12:38:11;6.73;;;2.43;;
30173;SDS011;16985;50.814;8.530;2022-09-29T12:41:12;6.93;;;2.70;;
30173;SDS011;16985;50.814;8.530;2022-09-29T12:46:41;3.47;;;2.10;;
30173;SDS011;16985;50.814;8.530;2022-09-29T12:49:54;7.07;;;2.80;;
30173;SDS011;16985;50.814;8.530;2022-09-29T12:52:36;5.70;;;2.10;;
30173;SDS011;16985;50.814;8.530;2022-09-29T12:55:17;3.05;;;2.25;;
30173;SDS011;16985;50.814;8.530;2022-09-29T12:57:54;6.43;;;2.30;;
30173;SDS011;16985;50.814;8.530;2022-09-29T13:00:24;3.67;;;2.00;;
30173;SDS011;16985;50.814;8.530;2022-09-29T13:05:56;12.57;;;3.25;;
30173;SDS011;16985;50.814;8.530;2022-09-29T13:09:32;2.80;;;1.90;;
30173;SDS011;16985;50.814;8.530;2022-09-29T13:18:09;3.53;;;1.90;;
30173;SDS011;16985;50.814;8.530;2022-09-29T13:29:19;5.63;;;2.38;;
30173;SDS011;16985;50.814;8.530;2022-09-29T13:31:48;3.25;;;1.70;;
30173;SDS011;16985;50.814;8.530;2022-09-29T13:34:27;3.40;;;1.92;;
30173;SDS011;16985;50.814;8.530;2022-09-29T13:39:42;5.93;;;2.08;;
30173;SDS011;16985;50.814;8.530;2022-09-29T13:45:12;2.92;;;1.40;;
30173;SDS011;16985;50.814;8.530;2022-09-29T13:48:02;4.15;;;1.58;;
30173;SDS011;16985;50.814;8.530;2022-09-29T13:50:55;4.57;;;1.35;;
30173;SDS011;16985;50.814;8.530;2022-09-29T13:55:51;1.60;;;1.05;;
30173;SDS011;16985;50.814;8.530;2022-09-29T13:58:21;3.70;;;1.35;;
30173;SDS011;16985;50.814;8.530;2022-09-29T14:00:58;3.33;;;1.35;;
30173;SDS011;16985;50.814;8.530;2022-09-29T14:03:35;2.40;;;1.40;;
30173;SDS011;16985;50.814;8.530;2022-09-29T14:09:23;4.40;;;1.33;;
30173;SDS011;16985;50.814;8.530;2022-09-29T14:11:39;2.72;;;1.48;;
30173;SDS011;16985;50.814;8.530;2022-09-29T14:14:16;5.00;;;1.65;;
30173;SDS011;16985;50.814;8.530;2022-09-29T14:17:02;3.20;;;1.50;;
30173;SDS011;16985;50.814;8.530;2022-09-29T14:35:35;4.35;;;2.10;;
30173;SDS011;16985;50.814;8.530;2022-09-29T14:38:04;4.57;;;2.80;;
30173;SDS011;16985;50.814;8.530;2022-09-29T14:44:11;2.85;;;2.38;;
30173;SDS011;16985;50.814;8.530;2022-09-29T14:56:04;3.85;;;2.20;;
30173;SDS011;16985;50.814;8.530;2022-09-29T14:59:00;3.58;;;2.03;;
30173;SDS011;16985;50.814;8.530;2022-09-29T15:01:59;4.40;;;2.55;;
30173;SDS011;16985;50.814;8.530;2022-09-29T15:04:51;3.35;;;2.13;;
30173;SDS011;16985;50.814;8.530;2022-09-29T15:07:21;5.07;;;2.00;;
30173;SDS011;16985;50.814;8.530;2022-09-29T15:09:57;4.53;;;2.50;;
30173;SDS011;16985;50.814;8.530;2022-09-29T15:12:25;2.50;;;1.92;;
30173;SDS011;16985;50.814;8.530;2022-09-29T15:14:55;4.20;;;1.48;;
30173;SDS011;16985;50.814;8.530;2022-09-29T15:20:21;3.60;;;1.75;;
30173;SDS011;16985;50.814;8.530;2022-09-29T15:28:49;3.97;;;2.95;;
30173;SDS011;16985;50.814;8.530;2022-09-29T15:31:02;5.07;;;2.85;;
30173;SDS011;16985;50.814;8.530;2022-09-29T15:33:35;6.05;;;3.15;;
30173;SDS011;16985;50.814;8.530;2022-09-29T15:36:06;6.03;;;3.00;;
30173;SDS011;16985;50.814;8.530;2022-09-29T15:38:42;3.25;;;2.72;;
30173;SDS011;16985;50.814;8.530;2022-09-29T15:43:39;8.52;;;5.10;;
30173;SDS011;16985;50.814;8.530;2022-09-29T15:46:32;22.25;;;10.35;;
30173;SDS011;16985;50.814;8.530;2022-09-29T15:49:14;27.60;;;13.40;;
30173;SDS011;16985;50.814;8.530;2022-09-29T15:51:43;37.95;;;16.77;;
30173;SDS011;16985;50.814;8.530;2022-09-29T15:54:29;35.28;;;14.95;;
30173;SDS011;16985;50.814;8.530;2022-09-29T15:56:58;24.90;;;12.30;;
30173;SDS011;16985;50.814;8.530;2022-09-29T15:59:48;18.92;;;8.82;;
30173;SDS011;16985;50.814;8.530;2022-09-29T16:04:49;9.55;;;5.55;;
30173;SDS011;16985;50.814;8.530;2022-09-29T16:07:20;10.20;;;5.68;;
30173;SDS011;16985;50.814;8.530;2022-09-29T16:10:04;10.23;;;5.03;;
30173;SDS011;16985;50.814;8.530;2022-09-29T16:13:06;8.77;;;4.82;;
30173;SDS011;16985;50.814;8.530;2022-09-29T16:15:44;7.78;;;3.95;;
30173;SDS011;16985;50.814;8.530;2022-09-29T16:18:22;8.48;;;4.13;;
30173;SDS011;16985;50.814;8.530;2022-09-29T16:20:55;6.70;;;3.45;;
30173;SDS011;16985;50.814;8.530;2022-09-29T16:26:34;3.05;;;2.55;;
30173;SDS011;16985;50.814;8.530;2022-09-29T16:31:51;7.00;;;2.60;;
30173;SDS011;16985;50.814;8.530;2022-09-29T16:39:28;10.68;;;3.45;;
30173;SDS011;16985;50.814;8.530;2022-09-29T16:41:59;7.32;;;3.22;;
30173;SDS011;16985;50.814;8.530;2022-09-29T16:49:56;4.88;;;2.45;;
30173;SDS011;16985;50.814;8.530;2022-09-29T16:52:45;4.30;;;2.42;;
30173;SDS011;16985;50.814;8.530;2022-09-29T16:55:15;6.35;;;2.70;;
30173;SDS011;16985;50.814;8.530;2022-09-29T16:57:56;4.17;;;2.53;;
30173;SDS011;16985;50.814;8.530;2022-09-29T17:00:28;5.70;;;2.90;;
30173;SDS011;16985;50.814;8.530;2022-09-29T17:02:54;4.00;;;2.97;;
30173;SDS011;16985;50.814;8.530;2022-09-29T17:05:29;4.47;;;2.50;;
30173;SDS011;16985;50.814;8.530;2022-09-29T17:08:00;3.03;;;2.45;;
30173;SDS011;16985;50.814;8.530;2022-09-29T17:10:29;4.00;;;2.40;;
30173;SDS011;16985;50.814;8.530;2022-09-29T17:12:58;3.90;;;2.45;;
30173;SDS011;16985;50.814;8.530;2022-09-29T17:15:25;6.18;;;2.88;;
30173;SDS011;16985;50.814;8.530;2022-09-29T17:17:51;3.42;;;3.03;;
30173;SDS011;16985;50.814;8.530;2022-09-29T17:20:18;3.63;;;3.00;;
30173;SDS011;16985;50.814;8.530;2022-09-29T17:22:56;8.43;;;3.30;;
30173;SDS011;16985;50.814;8.530;2022-09-29T17:25:24;6.45;;;3.80;;
30173;SDS011;16985;50.814;8.530;2022-09-29T17:27:49;10.00;;;4.47;;
30173;SDS011;16985;50.814;8.530;2022-09-29T17:30:33;9.00;;;4.95;;
30173;SDS011;16985;50.814;8.530;2022-09-29T17:32:59;8.82;;;4.93;;
30173;SDS011;16985;50.814;8.530;2022-09-29T17:35:26;8.50;;;4.82;;
30173;SDS011;16985;50.814;8.530;2022-09-29T17:37:55;7.65;;;4.35;;
30173;SDS011;16985;50.814;8.530;2022-09-29T17:40:23;12.52;;;5.10;;
30173;SDS011;16985;50.814;8.530;2022-09-29T17:43:01;11.18;;;5.82;;
30173;SDS011;16985;50.814;8.530;2022-09-29T17:45:28;8.57;;;4.60;;
30173;SDS011;16985;50.814;8.530;2022-09-29T17:47:58;7.10;;;4.35;;
30173;SDS011;16985;50.814;8.530;2022-09-29T17:50:36;6.45;;;3.83;;
30173;SDS011;16985;50.814;8.530;2022-09-29T17:53:09;8.65;;;6.13;;
30173;SDS011;16985;50.814;8.530;2022-09-29T17:55:38;11.43;;;6.57;;
30173;SDS011;16985;50.814;8.530;2022-09-29T17:58:05;9.65;;;6.15;;
30173;SDS011;16985;50.814;8.530;2022-09-29T18:00:38;8.48;;;5.93;;
30173;SDS011;16985;50.814;8.530;2022-09-29T18:03:04;8.02;;;5.60;;
30173;SDS011;16985;50.814;8.530;2022-09-29T18:05:34;11.40;;;5.10;;
30173;SDS011;16985;50.814;8.530;2022-09-29T18:08:02;9.65;;;5.57;;
30173;SDS011;16985;50.814;8.530;2022-09-29T18:13:20;9.52;;;4.38;;
30173;SDS011;16985;50.814;8.530;2022-09-29T18:15:47;6.82;;;4.53;;
30173;SDS011;16985;50.814;8.530;2022-09-29T18:18:14;7.50;;;4.82;;
30173;SDS011;16985;50.814;8.530;2022-09-29T18:20:44;9.23;;;5.10;;
30173;SDS011;16985;50.814;8.530;2022-09-29T18:23:11;9.65;;;5.88;;
30173;SDS011;16985;50.814;8.530;2022-09-29T18:25:39;7.07;;;5.20;;
30173;SDS011;16985;50.814;8.530;2022-09-29T18:28:07;10.32;;;6.43;;
30173;SDS011;16985;50.814;8.530;2022-09-29T18:30:36;11.80;;;6.57;;
30173;SDS011;16985;50.814;8.530;2022-09-29T18:33:07;11.35;;;5.80;;
30173;SDS011;16985;50.814;8.530;2022-09-29T18:35:42;11.32;;;5.22;;
30173;SDS011;16985;50.814;8.530;2022-09-29T18:38:11;9.02;;;5.68;;
30173;SDS011;16985;50.814;8.530;2022-09-29T18:40:37;11.90;;;5.22;;
30173;SDS011;16985;50.814;8.530;2022-09-29T18:43:04;10.18;;;5.03;;
30173;SDS011;16985;50.814;8.530;2022-09-29T18:45:32;14.05;;;6.05;;
30173;SDS011;16985;50.814;8.530;2022-09-29T18:48:02;13.80;;;6.10;;
30173;SDS011;16985;50.814;8.530;2022-09-29T18:50:32;16.20;;;5.60;;
30173;SDS011;16985;50.814;8.530;2022-09-29T18:53:03;15.93;;;4.30;;
30173;SDS011;16985;50.814;8.530;2022-09-29T18:55:30;13.95;;;4.60;;
30173;SDS011;16985;50.814;8.530;2022-09-29T18:57:56;8.13;;;3.75;;
30173;SDS011;16985;50.814;8.530;2022-09-29T19:00:24;10.10;;;4.57;;
30173;SDS011;16985;50.814;8.530;2022-09-29T19:02:56;11.60;;;4.20;;
30173;SDS011;16985;50.814;8.530;2022-09-29T19:05:27;8.05;;;4.15;;
30173;SDS011;16985;50.814;8.530;2022-09-29T19:08:03;9.68;;;4.82;;
30173;SDS011;16985;50.814;8.530;2022-09-29T19:10:30;6.10;;;3.22;;
30173;SDS011;16985;50.814;8.530;2022-09-29T19:13:03;8.27;;;3.45;;
30173;SDS011;16985;50.814;8.530;2022-09-29T19:15:37;7.90;;;2.90;;
30173;SDS011;16985;50.814;8.530;2022-09-29T19:18:05;19.20;;;4.13;;
30173;SDS011;16985;50.814;8.530;2022-09-29T19:20:32;5.50;;;4.03;;
30173;SDS011;16985;50.814;8.530;2022-09-29T19:22:59;8.70;;;4.43;;